createdAt,value
2019-05-25T00:01:37.376Z,92.60
2019-05-25T00:04:04.569Z,92.50
2019-05-25T00:06:31.769Z,92.60
2019-05-25T00:08:59.018Z,92.50
2019-05-25T00:11:26.382Z,92.40
2019-05-25T00:13:53.589Z,92.70
2019-05-25T00:16:20.786Z,92.40
2019-05-25T00:18:48.035Z,92.30
2019-05-25T00:21:15.505Z,92.50
2019-05-25T00:23:42.712Z,92.70
2019-05-25T00:26:09.944Z,93.00
2019-05-25T00:28:37.120Z,92.60
2019-05-25T00:31:04.311Z,92.70
2019-05-25T00:33:32.104Z,92.80
2019-05-25T00:35:59.298Z,92.70
2019-05-25T00:38:26.498Z,92.80
2019-05-25T00:40:53.809Z,92.70
2019-05-25T00:43:21.000Z,92.90
2019-05-25T00:45:48.207Z,92.80
2019-05-25T00:48:15.394Z,93.00
2019-05-25T00:50:42.580Z,93.30
2019-05-25T00:53:09.776Z,93.30
2019-05-25T00:55:36.964Z,93.30
2019-05-25T00:58:04.211Z,93.50
2019-05-25T01:00:31.404Z,93.50
2019-05-25T01:02:58.609Z,93.50
2019-05-25T01:05:26.284Z,93.00
2019-05-25T01:07:53.545Z,93.00
2019-05-25T01:10:20.845Z,92.70
2019-05-25T01:12:48.251Z,93.00
2019-05-25T01:15:15.847Z,93.00
2019-05-25T01:17:43.036Z,93.00
2019-05-25T01:20:11.417Z,93.10
2019-05-25T01:22:38.677Z,93.50
2019-05-25T01:25:07.180Z,93.50
2019-05-25T01:27:34.380Z,93.70
2019-05-25T01:30:01.576Z,93.40
2019-05-25T01:32:28.816Z,93.60
2019-05-25T01:34:55.997Z,93.50
2019-05-25T01:37:23.186Z,93.50
2019-05-25T01:39:50.367Z,93.30
2019-05-25T01:42:17.568Z,93.20
2019-05-25T01:44:45.189Z,93.30
2019-05-25T01:47:12.402Z,93.30
2019-05-25T01:49:39.582Z,93.30
2019-05-25T01:52:06.771Z,93.30
2019-05-25T01:54:33.972Z,93.30
2019-05-25T01:57:01.477Z,93.10
2019-05-25T01:59:28.681Z,92.70
2019-05-25T02:01:55.891Z,92.80
2019-05-25T02:04:23.064Z,92.90
2019-05-25T02:06:50.346Z,92.90
2019-05-25T02:09:17.536Z,93.10
2019-05-25T02:11:44.708Z,93.20
2019-05-25T02:14:11.889Z,93.30
2019-05-25T02:16:39.074Z,93.40
2019-05-25T02:19:06.270Z,93.50
2019-05-25T02:21:33.444Z,93.50
2019-05-25T02:24:00.640Z,93.70
2019-05-25T02:26:27.864Z,93.90
2019-05-25T02:28:55.039Z,93.90
2019-05-25T02:31:22.224Z,94.10
2019-05-25T02:33:49.406Z,94.30
2019-05-25T02:36:16.591Z,94.20
2019-05-25T02:38:43.777Z,94.30
2019-05-25T02:41:10.977Z,94.40
2019-05-25T02:43:38.155Z,94.00
2019-05-25T02:46:05.370Z,94.00
2019-05-25T02:48:32.560Z,94.00
2019-05-25T02:50:59.757Z,93.80
2019-05-25T02:53:26.948Z,93.90
2019-05-25T02:55:54.188Z,93.80
2019-05-25T02:58:21.393Z,93.60
2019-05-25T03:00:48.592Z,93.70
2019-05-25T03:03:15.978Z,93.60
2019-05-25T03:05:43.692Z,93.80
2019-05-25T03:08:10.959Z,93.70
2019-05-25T03:10:38.856Z,93.70
2019-05-25T03:13:06.065Z,93.40
2019-05-25T03:15:33.262Z,92.70
2019-05-25T03:18:00.433Z,92.90
2019-05-25T03:20:27.624Z,93.40
2019-05-25T03:22:54.860Z,93.40
2019-05-25T03:25:22.057Z,93.30
2019-05-25T03:27:49.268Z,93.40
2019-05-25T03:30:28.284Z,93.50
2019-05-25T03:32:55.625Z,93.60
2019-05-25T03:35:22.813Z,93.40
2019-05-25T03:37:50.002Z,93.40
2019-05-25T03:40:17.200Z,93.40
2019-05-25T03:42:44.792Z,93.70
2019-05-25T03:45:12.008Z,93.40
2019-05-25T03:47:40.143Z,93.40
2019-05-25T03:50:07.324Z,93.60
2019-05-25T03:52:34.510Z,93.60
2019-05-25T03:55:01.769Z,93.80
2019-05-25T03:57:28.981Z,93.90
2019-05-25T03:59:56.181Z,94.00
2019-05-25T04:02:23.484Z,93.90
2019-05-25T04:04:50.692Z,93.60
2019-05-25T04:07:17.890Z,93.70
2019-05-25T04:09:45.268Z,93.80
2019-05-25T04:12:12.512Z,94.00
2019-05-25T04:14:41.949Z,94.00
2019-05-25T04:17:09.169Z,94.10
2019-05-25T04:19:36.409Z,93.90
2019-05-25T04:22:03.614Z,94.00
2019-05-25T04:24:30.798Z,93.90
2019-05-25T04:26:58.079Z,94.10
2019-05-25T04:29:25.282Z,94.30
2019-05-25T04:31:52.573Z,94.50
2019-05-25T04:34:19.781Z,94.60
2019-05-25T04:36:47.005Z,94.70
2019-05-25T04:39:14.205Z,94.60
2019-05-25T04:41:41.398Z,94.80
2019-05-25T04:44:08.605Z,94.80
2019-05-25T04:46:35.800Z,94.90
2019-05-25T04:49:03.927Z,95.10
2019-05-25T04:51:31.141Z,95.20
2019-05-25T04:53:58.320Z,95.20
2019-05-25T04:56:38.825Z,95.40
2019-05-25T04:58:54.592Z,95.20
2019-05-25T05:01:22.721Z,95.30
2019-05-25T05:03:50.164Z,95.50
2019-05-25T05:06:17.352Z,95.40
2019-05-25T05:08:44.701Z,95.20
2019-05-25T05:11:11.906Z,95.20
2019-05-25T05:13:39.100Z,95.20
2019-05-25T05:16:06.285Z,95.20
2019-05-25T05:18:33.500Z,95.40
2019-05-25T05:21:00.867Z,95.60
2019-05-25T05:23:28.045Z,95.50
2019-05-25T05:25:55.218Z,95.60
2019-05-25T05:28:22.422Z,95.80
2019-05-25T05:30:49.596Z,95.50
2019-05-25T05:33:16.789Z,95.40
2019-05-25T05:35:45.372Z,94.60
2019-05-25T05:38:12.751Z,94.30
2019-05-25T05:40:40.128Z,95.00
2019-05-25T05:43:11.158Z,94.10
2019-05-25T05:45:40.454Z,94.30
2019-05-25T05:48:09.626Z,93.30
2019-05-25T05:50:38.697Z,93.50
2019-05-25T05:53:05.913Z,93.10
2019-05-25T05:55:33.306Z,92.80
2019-05-25T05:58:01.314Z,92.80
2019-05-25T06:00:28.529Z,92.60
2019-05-25T06:02:55.733Z,93.00
2019-05-25T06:05:22.933Z,93.00
2019-05-25T06:07:50.113Z,92.60
2019-05-25T06:10:17.400Z,91.80
2019-05-25T06:12:44.617Z,92.40
2019-05-25T06:15:12.167Z,92.20
2019-05-25T06:17:39.365Z,92.80
2019-05-25T06:20:07.118Z,92.40
2019-05-25T06:22:34.317Z,92.60
2019-05-25T06:25:01.580Z,91.30
2019-05-25T06:27:28.765Z,91.50
2019-05-25T06:29:55.968Z,91.60
2019-05-25T06:32:23.184Z,91.30
2019-05-25T06:34:50.429Z,91.20
2019-05-25T06:37:17.612Z,91.60
2019-05-25T06:39:44.860Z,91.40
2019-05-25T06:42:12.064Z,90.90
2019-05-25T06:44:39.184Z,90.90
2019-05-25T06:47:06.392Z,90.70
2019-05-25T06:49:33.624Z,90.00
2019-05-25T06:52:01.829Z,90.30
2019-05-25T06:54:29.091Z,90.10
2019-05-25T06:56:56.385Z,90.00
2019-05-25T06:59:23.561Z,90.10
2019-05-25T07:01:50.776Z,89.30
2019-05-25T07:04:17.964Z,88.90
2019-05-25T07:06:45.196Z,90.40
2019-05-25T07:09:12.452Z,88.90
2019-05-25T07:11:39.646Z,89.70
2019-05-25T07:14:07.045Z,88.80
2019-05-25T07:16:34.250Z,89.70
2019-05-25T07:19:01.653Z,89.50
2019-05-25T07:21:28.981Z,88.60
2019-05-25T07:23:56.200Z,88.60
2019-05-25T07:26:23.434Z,89.00
2019-05-25T07:28:50.656Z,88.40
2019-05-25T07:31:17.989Z,87.70
2019-05-25T07:33:45.219Z,89.00
2019-05-25T07:36:12.476Z,87.50
2019-05-25T07:38:39.676Z,88.40
2019-05-25T07:41:06.890Z,89.00
2019-05-25T07:43:34.109Z,87.50
2019-05-25T07:46:01.317Z,87.80
2019-05-25T07:48:28.660Z,86.00
2019-05-25T07:50:55.875Z,84.50
2019-05-25T07:53:24.146Z,85.20
2019-05-25T07:55:51.354Z,83.00
2019-05-25T07:58:18.806Z,84.00
2019-05-25T08:00:46.153Z,85.00
2019-05-25T08:03:13.369Z,85.20
2019-05-25T08:05:40.581Z,85.90
2019-05-25T08:08:07.784Z,83.40
2019-05-25T08:10:35.025Z,82.40
2019-05-25T08:13:02.216Z,82.60
2019-05-25T08:15:29.556Z,84.50
2019-05-25T08:17:56.816Z,83.80
2019-05-25T08:20:24.000Z,83.20
2019-05-25T08:22:51.185Z,82.70
2019-05-25T08:25:18.372Z,81.00
2019-05-25T08:27:45.597Z,80.70
2019-05-25T08:30:12.937Z,80.60
2019-05-25T08:32:40.276Z,83.60
2019-05-25T08:35:07.953Z,83.10
2019-05-25T08:37:35.657Z,80.50
2019-05-25T08:40:03.928Z,82.00
2019-05-25T08:42:31.371Z,81.50
2019-05-25T08:44:58.613Z,75.50
2019-05-25T08:47:25.792Z,76.00
2019-05-25T08:49:53.168Z,79.30
2019-05-25T08:52:20.359Z,80.00
2019-05-25T08:54:48.482Z,77.00
2019-05-25T08:57:18.585Z,79.50
2019-05-25T08:59:45.220Z,77.50
2019-05-25T09:02:12.425Z,78.70
2019-05-25T09:04:39.658Z,76.00
2019-05-25T09:07:06.860Z,75.90
2019-05-25T09:09:34.052Z,76.30
2019-05-25T09:12:02.442Z,77.20
2019-05-25T09:14:31.591Z,77.00
2019-05-25T09:16:59.025Z,72.50
2019-05-25T09:19:26.233Z,73.20
2019-05-25T09:22:02.548Z,76.60
2019-05-25T09:24:22.529Z,77.20
2019-05-25T09:26:49.709Z,74.50
2019-05-25T09:29:16.928Z,73.30
2019-05-25T09:31:44.657Z,76.10
2019-05-25T09:34:11.863Z,74.20
2019-05-25T09:36:39.049Z,75.00
2019-05-25T09:39:06.656Z,71.80
2019-05-25T09:41:33.824Z,76.90
2019-05-25T09:44:01.020Z,72.80
2019-05-25T09:46:28.204Z,71.60
2019-05-25T09:48:55.456Z,73.20
2019-05-25T09:51:22.670Z,74.10
2019-05-25T09:53:49.894Z,71.10
2019-05-25T09:56:17.088Z,74.20
2019-05-25T09:58:44.278Z,73.10
2019-05-25T10:01:11.457Z,68.20
2019-05-25T10:03:38.624Z,72.50
2019-05-25T10:06:12.221Z,72.60
2019-05-25T10:08:34.900Z,67.80
2019-05-25T10:11:02.189Z,68.80
2019-05-25T10:13:29.389Z,67.60
2019-05-25T10:15:56.580Z,70.30
2019-05-25T10:18:23.760Z,67.80
2019-05-25T10:20:51.024Z,65.70
2019-05-25T10:23:18.221Z,68.30
2019-05-25T10:25:45.439Z,65.50
2019-05-25T10:28:12.655Z,68.80
2019-05-25T10:30:39.977Z,65.10
2019-05-25T10:33:07.149Z,65.80
2019-05-25T10:35:34.449Z,68.50
2019-05-25T10:38:01.658Z,65.20
2019-05-25T10:40:28.957Z,64.90
2019-05-25T10:42:56.169Z,66.60
2019-05-25T10:45:23.368Z,61.10
2019-05-25T10:47:50.576Z,66.40
2019-05-25T10:50:17.983Z,67.80
2019-05-25T10:52:45.268Z,62.20
2019-05-25T10:55:14.469Z,63.10
2019-05-25T10:57:41.676Z,62.40
2019-05-25T11:00:09.747Z,61.90
2019-05-25T11:02:36.953Z,62.60
2019-05-25T11:05:04.358Z,63.60
2019-05-25T11:07:31.551Z,65.80
2019-05-25T11:09:58.764Z,63.40
2019-05-25T11:12:26.206Z,63.90
2019-05-25T11:14:53.579Z,69.20
2019-05-25T11:17:20.856Z,61.60
2019-05-25T11:19:48.050Z,59.90
2019-05-25T11:22:15.265Z,63.40
2019-05-25T11:24:42.441Z,59.80
2019-05-25T11:27:09.794Z,61.00
2019-05-25T11:29:36.996Z,67.80
2019-05-25T11:32:05.714Z,64.00
2019-05-25T11:34:33.682Z,62.00
2019-05-25T11:37:00.879Z,62.80
2019-05-25T11:39:28.062Z,67.50
2019-05-25T11:41:55.246Z,66.50
2019-05-25T11:44:22.430Z,69.80
2019-05-25T11:46:49.614Z,65.70
2019-05-25T11:49:22.552Z,61.90
2019-05-25T11:51:45.901Z,64.70
2019-05-25T11:54:13.100Z,67.40
2019-05-25T11:56:40.325Z,61.80
2019-05-25T11:59:08.546Z,66.70
2019-05-25T12:01:35.720Z,61.20
2019-05-25T12:04:02.909Z,62.90
2019-05-25T12:06:30.096Z,59.40
2019-05-25T12:08:57.300Z,61.50
2019-05-25T12:11:24.520Z,63.30
2019-05-25T12:13:51.720Z,63.90
2019-05-25T12:16:19.012Z,64.20
2019-05-25T12:18:46.332Z,66.30
2019-05-25T12:21:13.556Z,66.00
2019-05-25T12:23:40.752Z,67.30
2019-05-25T12:26:07.953Z,66.30
2019-05-25T12:28:35.271Z,66.30
2019-05-25T12:31:02.469Z,72.30
2019-05-25T12:33:29.660Z,72.60
2019-05-25T12:35:56.848Z,75.40
2019-05-25T12:38:24.060Z,77.20
2019-05-25T12:40:53.967Z,83.30
2019-05-25T12:43:20.530Z,84.90
2019-05-25T12:45:47.712Z,82.30
2019-05-25T12:48:14.893Z,81.50
2019-05-25T12:50:42.220Z,81.70
2019-05-25T12:53:09.412Z,83.20
2019-05-25T12:55:36.612Z,83.80
2019-05-25T12:58:04.008Z,84.10
2019-05-25T13:00:32.136Z,84.10
2019-05-25T13:02:59.329Z,84.50
2019-05-25T13:05:34.302Z,82.10
2019-05-25T13:07:55.705Z,81.50
2019-05-25T13:10:22.941Z,81.10
2019-05-25T13:12:50.132Z,82.90
2019-05-25T13:15:17.341Z,82.10
2019-05-25T13:17:44.605Z,80.80
2019-05-25T13:20:12.742Z,80.20
2019-05-25T13:22:39.917Z,78.70
2019-05-25T13:25:07.497Z,79.00
2019-05-25T13:27:34.940Z,78.70
2019-05-25T13:30:03.306Z,80.40
2019-05-25T13:32:31.002Z,79.10
2019-05-25T13:34:58.233Z,80.40
2019-05-25T13:37:25.415Z,81.80
2019-05-25T13:39:52.608Z,81.30
2019-05-25T13:42:19.808Z,81.30
2019-05-25T13:44:47.120Z,81.60
2019-05-25T13:47:14.341Z,79.90
2019-05-25T13:49:41.557Z,77.60
2019-05-25T13:52:08.740Z,78.00
2019-05-25T13:54:35.957Z,80.70
2019-05-25T13:57:03.292Z,77.70
2019-05-25T13:59:30.488Z,77.90
2019-05-25T14:01:57.723Z,76.10
2019-05-25T14:04:25.029Z,76.50
2019-05-25T14:06:52.216Z,76.80
2019-05-25T14:09:19.419Z,76.60
2019-05-25T14:11:46.712Z,79.00
2019-05-25T14:14:13.924Z,75.00
2019-05-25T14:16:41.148Z,74.90
2019-05-25T14:19:08.342Z,70.60
2019-05-25T14:21:35.531Z,72.30
2019-05-25T14:24:02.716Z,68.90
2019-05-25T14:26:29.905Z,69.10
2019-05-25T14:28:57.192Z,68.80
2019-05-25T14:31:24.496Z,69.00
2019-05-25T14:33:51.744Z,68.20
2019-05-25T14:36:18.961Z,68.80
2019-05-25T14:38:46.259Z,71.90
2019-05-25T14:41:13.483Z,64.50
2019-05-25T14:43:40.720Z,64.60
2019-05-25T14:46:07.896Z,66.30
2019-05-25T14:48:35.284Z,67.30
2019-05-25T14:51:02.453Z,64.60
2019-05-25T14:53:29.631Z,64.70
2019-05-25T14:55:56.808Z,64.30
2019-05-25T14:58:23.980Z,63.60
2019-05-25T15:00:51.166Z,63.80
2019-05-25T15:03:18.411Z,64.30
2019-05-25T15:05:45.681Z,61.10
2019-05-25T15:08:12.869Z,65.60
2019-05-25T15:10:40.062Z,64.20
2019-05-25T15:13:07.265Z,62.00
2019-05-25T15:15:34.473Z,61.10
2019-05-25T15:18:01.844Z,61.40
2019-05-25T15:20:29.017Z,63.50
2019-05-25T15:22:56.220Z,62.10
2019-05-25T15:25:23.448Z,63.10
2019-05-25T15:27:50.663Z,62.20
2019-05-25T15:30:18.631Z,63.50
2019-05-25T15:32:45.940Z,66.20
2019-05-25T15:35:13.227Z,62.10
2019-05-25T15:37:40.429Z,62.30
2019-05-25T15:40:08.757Z,64.60
2019-05-25T15:42:35.984Z,63.50
2019-05-25T15:45:03.770Z,59.10
2019-05-25T15:47:30.958Z,61.50
2019-05-25T15:49:58.153Z,59.70
2019-05-25T15:52:25.373Z,61.90
2019-05-25T15:54:52.578Z,60.30
2019-05-25T15:57:19.787Z,61.20
2019-05-25T15:59:46.994Z,61.00
2019-05-25T16:02:14.293Z,62.40
2019-05-25T16:04:41.646Z,61.00
2019-05-25T16:07:09.034Z,60.90
2019-05-25T16:09:36.258Z,60.90
2019-05-25T16:12:03.640Z,63.70
2019-05-25T16:14:30.958Z,64.40
2019-05-25T16:16:58.158Z,65.50
2019-05-25T16:19:25.373Z,66.40
2019-05-25T16:21:52.588Z,65.40
2019-05-25T16:24:19.865Z,65.30
2019-05-25T16:26:47.172Z,66.90
2019-05-25T16:29:14.632Z,67.80
2019-05-25T16:31:41.977Z,67.50
2019-05-25T16:34:09.364Z,68.00
2019-05-25T16:36:36.717Z,67.20
2019-05-25T16:39:05.660Z,67.30
2019-05-25T16:41:32.824Z,70.20
2019-05-25T16:44:00.185Z,72.60
2019-05-25T16:46:27.422Z,73.90
2019-05-25T16:48:54.656Z,72.80
2019-05-25T16:51:22.144Z,73.60
2019-05-25T16:53:49.360Z,75.10
2019-05-25T16:56:16.781Z,73.60
2019-05-25T16:58:43.988Z,74.00
2019-05-25T17:01:11.325Z,74.90
2019-05-25T17:03:38.537Z,75.00
2019-05-25T17:06:06.641Z,76.20
2019-05-25T17:08:33.841Z,77.40
2019-05-25T17:11:01.055Z,77.80
2019-05-25T17:13:28.417Z,75.60
2019-05-25T17:15:55.632Z,79.20
2019-05-25T17:18:22.849Z,79.80
2019-05-25T17:20:50.059Z,81.70
2019-05-25T17:23:17.253Z,82.20
2019-05-25T17:25:44.435Z,82.60
2019-05-25T17:28:11.656Z,82.50
2019-05-25T17:30:41.320Z,81.00
2019-05-25T17:33:08.497Z,80.90
2019-05-25T17:35:35.780Z,81.30
2019-05-25T17:38:03.580Z,81.10
2019-05-25T17:40:30.848Z,81.70
2019-05-25T17:42:58.058Z,81.80
2019-05-25T17:45:25.246Z,80.50
2019-05-25T17:47:52.436Z,79.50
2019-05-25T17:50:19.626Z,79.60
2019-05-25T17:52:46.843Z,80.50
2019-05-25T17:55:14.380Z,81.40
2019-05-25T17:57:41.567Z,82.20
2019-05-25T18:00:09.652Z,81.70
2019-05-25T18:02:36.834Z,81.80
2019-05-25T18:05:04.168Z,82.10
2019-05-25T18:07:31.412Z,82.50
2019-05-25T18:09:58.568Z,84.10
2019-05-25T18:12:25.756Z,85.30
2019-05-25T18:14:52.962Z,85.90
2019-05-25T18:17:20.252Z,86.70
2019-05-25T18:19:47.456Z,87.40
2019-05-25T18:22:14.656Z,87.60
2019-05-25T18:24:41.833Z,85.70
2019-05-25T18:27:09.040Z,85.00
2019-05-25T18:29:36.233Z,84.00
2019-05-25T18:32:03.652Z,83.20
2019-05-25T18:34:30.865Z,82.80
2019-05-25T18:36:58.087Z,82.70
2019-05-25T18:39:25.273Z,82.20
2019-05-25T18:41:52.491Z,82.10
2019-05-25T18:44:19.694Z,82.10
2019-05-25T18:46:46.900Z,82.80
2019-05-25T18:49:14.124Z,83.00
2019-05-25T18:51:41.344Z,83.60
2019-05-25T18:54:08.532Z,83.70
2019-05-25T18:56:35.740Z,84.00
2019-05-25T18:59:03.085Z,84.20
2019-05-25T19:01:30.307Z,84.30
2019-05-25T19:03:57.616Z,84.40
2019-05-25T19:06:24.859Z,84.90
2019-05-25T19:08:52.064Z,85.20
2019-05-25T19:11:19.409Z,85.70
2019-05-25T19:13:46.592Z,85.90
2019-05-25T19:16:13.832Z,86.10
2019-05-25T19:18:41.105Z,86.40
2019-05-25T19:21:08.311Z,86.70
2019-05-25T19:23:35.505Z,86.80
2019-05-25T19:26:02.930Z,86.60
2019-05-25T19:28:30.128Z,86.70
2019-05-25T19:30:57.303Z,86.90
2019-05-25T19:33:24.609Z,86.80
2019-05-25T19:35:54.161Z,86.70
2019-05-25T19:38:20.897Z,86.30
2019-05-25T19:40:48.100Z,86.50
2019-05-25T19:43:15.291Z,86.50
2019-05-25T19:45:42.460Z,86.20
2019-05-25T19:48:09.652Z,86.40
2019-05-25T19:50:36.841Z,86.50
2019-05-25T19:53:04.044Z,86.90
2019-05-25T19:55:31.245Z,87.20
2019-05-25T19:57:58.444Z,87.40
2019-05-25T20:00:25.605Z,87.50
2019-05-25T20:02:52.907Z,87.70
2019-05-25T20:05:20.095Z,88.20
2019-05-25T20:07:47.292Z,88.10
2019-05-25T20:10:14.688Z,88.40
2019-05-25T20:12:41.884Z,88.70
2019-05-25T20:15:09.567Z,89.50
2019-05-25T20:17:36.753Z,89.60
2019-05-25T20:20:05.777Z,89.90
2019-05-25T20:22:32.985Z,90.00
2019-05-25T20:25:00.176Z,89.90
2019-05-25T20:27:27.364Z,90.00
2019-05-25T20:29:54.536Z,90.00
2019-05-25T20:32:21.721Z,89.60
2019-05-25T20:34:48.917Z,89.60
2019-05-25T20:37:16.088Z,89.70
2019-05-25T20:39:43.269Z,89.90
2019-05-25T20:42:10.452Z,90.00
2019-05-25T20:44:37.625Z,90.10
2019-05-25T20:47:04.813Z,90.10
2019-05-25T20:49:32.025Z,90.20
2019-05-25T20:51:59.197Z,90.30
2019-05-25T20:54:26.374Z,90.50
2019-05-25T20:56:53.558Z,90.60
2019-05-25T20:59:20.720Z,90.80
2019-05-25T21:01:47.895Z,90.80
2019-05-25T21:04:15.073Z,91.10
2019-05-25T21:06:42.248Z,91.20
2019-05-25T21:09:09.602Z,91.40
2019-05-25T21:11:36.813Z,91.30
2019-05-25T21:14:04.103Z,91.50
2019-05-25T21:16:31.295Z,91.60
2019-05-25T21:18:58.476Z,91.50
2019-05-25T21:21:25.680Z,91.50
2019-05-25T21:23:52.876Z,91.60
2019-05-25T21:26:20.068Z,91.50
2019-05-25T21:28:47.247Z,91.40
2019-05-25T21:31:14.432Z,91.70
2019-05-25T21:33:41.736Z,91.70
2019-05-25T21:36:09.513Z,91.60
2019-05-25T21:38:36.861Z,91.50
2019-05-25T21:41:04.072Z,91.40
2019-05-25T21:43:31.247Z,91.40
2019-05-25T21:45:58.444Z,91.10
2019-05-25T21:48:25.745Z,91.10
2019-05-25T21:50:52.941Z,91.00
2019-05-25T21:53:20.141Z,91.00
2019-05-25T21:55:47.340Z,91.40
2019-05-25T21:58:14.508Z,91.50
2019-05-25T22:00:42.498Z,91.80
2019-05-25T22:03:09.680Z,92.00
2019-05-25T22:05:36.881Z,92.00
2019-05-25T22:08:04.181Z,92.00
2019-05-25T22:10:31.380Z,92.10
2019-05-25T22:12:58.685Z,91.90
2019-05-25T22:15:25.885Z,92.00
2019-05-25T22:17:54.976Z,92.10
2019-05-25T22:20:22.184Z,92.20
2019-05-25T22:22:49.480Z,92.30
2019-05-25T22:25:16.681Z,92.40
2019-05-25T22:27:43.869Z,92.60
2019-05-25T22:30:11.791Z,92.50
2019-05-25T22:32:38.973Z,92.60
2019-05-25T22:35:06.466Z,92.50
2019-05-25T22:37:33.662Z,92.60
2019-05-25T22:40:00.845Z,93.00
2019-05-25T22:42:28.056Z,93.00
2019-05-25T22:44:55.248Z,93.10
2019-05-25T22:47:22.456Z,93.00
2019-05-25T22:49:49.729Z,92.80
2019-05-25T22:52:16.912Z,92.70
2019-05-25T22:54:44.112Z,92.80
2019-05-25T22:57:11.333Z,92.80
2019-05-25T22:59:38.528Z,92.60
2019-05-25T23:02:05.743Z,92.60
2019-05-25T23:04:32.916Z,92.70
2019-05-25T23:07:00.116Z,92.70
2019-05-25T23:09:27.297Z,92.50
2019-05-25T23:11:54.508Z,92.70
2019-05-25T23:14:21.724Z,92.80
2019-05-25T23:16:48.920Z,92.70
2019-05-25T23:19:16.206Z,92.90
2019-05-25T23:21:43.396Z,92.80
2019-05-25T23:24:10.752Z,92.90
2019-05-25T23:26:38.124Z,92.70
2019-05-25T23:29:05.530Z,93.00
2019-05-25T23:31:32.631Z,92.70
2019-05-25T23:33:59.796Z,93.00
2019-05-25T23:36:27.189Z,92.90
2019-05-25T23:38:54.376Z,93.00
2019-05-25T23:41:21.553Z,93.00
2019-05-25T23:43:48.740Z,92.80
2019-05-25T23:46:15.921Z,93.10
2019-05-25T23:48:43.085Z,93.40
2019-05-25T23:51:10.384Z,93.40
2019-05-25T23:53:37.580Z,93.40
2019-05-25T23:56:04.748Z,93.60
2019-05-25T23:58:31.946Z,93.60
